Time;durP1;ratioP1;P1;durP2;ratioP2;P2;SDS_P1;SDS_P2;PMS_P1;PMS_P2;Temp;Humidity;BMP_temperature;BMP_pressure;BME280_temperature;BME280_humidity;BME280_pressure;Samples;Min_cycle;Max_cycle;Signal;HPM_P1;HPM_P2
2020/12/21 00:00:37;;;;;;;13.82;10.15;;;22.90;47.90;;;;;;5043266;28;45379;-59
2020/12/21 00:03:03;;;;;;;16.85;11.35;;;22.90;48.10;;;;;;5029645;28;45412;-58
2020/12/21 00:05:30;;;;;;;16.60;11.60;;;22.90;48.20;;;;;;5026977;28;46344;-58
2020/12/21 00:08:00;;;;;;;13.63;9.70;;;22.90;48.40;;;;;;5026478;28;45392;-58
2020/12/21 00:10:29;;;;;;;15.90;11.05;;;22.90;48.50;;;;;;5033963;28;45288;-58
2020/12/21 00:12:56;;;;;;;16.40;10.18;;;22.90;48.50;;;;;;5050594;28;45419;-59
2020/12/21 00:15:21;;;;;;;13.90;10.23;;;22.90;48.60;;;;;;5049744;28;46057;-59
2020/12/21 00:17:47;;;;;;;15.75;11.38;;;22.90;48.60;;;;;;5045343;28;45343;-59
2020/12/21 00:20:12;;;;;;;15.80;10.70;;;22.90;48.60;;;;;;5029935;28;45342;-58
2020/12/21 00:22:38;;;;;;;15.00;10.65;;;22.90;48.70;;;;;;5046189;28;45577;-58
2020/12/21 00:25:04;;;;;;;13.85;10.23;;;22.90;48.70;;;;;;5046092;28;46144;-58
2020/12/21 00:27:29;;;;;;;17.27;11.75;;;22.80;48.70;;;;;;5031233;28;45340;-58
2020/12/21 00:29:55;;;;;;;15.75;10.82;;;22.90;48.80;;;;;;5025978;28;45399;-58
2020/12/21 00:32:20;;;;;;;17.67;11.55;;;22.90;48.80;;;;;;5026721;28;45587;-58
2020/12/21 00:34:46;;;;;;;16.17;11.57;;;22.90;48.90;;;;;;5027270;28;45232;-58
2020/12/21 00:37:12;;;;;;;16.83;10.75;;;22.80;48.90;;;;;;5043103;28;45271;-58
2020/12/21 00:39:37;;;;;;;15.23;11.10;;;22.90;48.90;;;;;;5029737;28;45438;-58
2020/12/21 00:42:03;;;;;;;14.93;11.23;;;22.80;48.90;;;;;;5030225;28;45368;-58
2020/12/21 00:44:28;;;;;;;13.75;9.75;;;22.80;48.90;;;;;;5046035;28;46575;-58
2020/12/21 00:46:54;;;;;;;13.13;10.18;;;22.80;48.90;;;;;;5046123;28;45443;-58
2020/12/21 00:49:20;;;;;;;18.30;11.85;;;22.80;48.90;;;;;;5038521;28;45321;-58
2020/12/21 00:51:45;;;;;;;17.25;10.50;;;22.80;48.90;;;;;;5033417;28;45288;-59
2020/12/21 00:54:11;;;;;;;13.73;10.57;;;22.80;49.00;;;;;;5049005;28;46457;-58
2020/12/21 00:56:37;;;;;;;14.13;10.68;;;22.80;49.00;;;;;;5032503;28;45475;-58
2020/12/21 00:59:02;;;;;;;14.38;10.77;;;22.80;49.00;;;;;;5049330;28;45471;-59
2020/12/21 01:01:29;;;;;;;12.80;9.40;;;22.80;49.00;;;;;;5049576;28;45632;-58
2020/12/21 01:03:58;;;;;;;15.35;9.65;;;22.80;48.90;;;;;;5032390;28;46374;-59
2020/12/21 01:06:24;;;;;;;13.25;10.25;;;22.80;49.10;;;;;;5049045;28;45221;-58
2020/12/21 01:08:50;;;;;;;12.35;9.75;;;22.80;49.00;;;;;;5032308;28;45230;-59
2020/12/21 01:11:16;;;;;;;14.07;10.25;;;22.80;49.00;;;;;;5032871;28;45369;-58
2020/12/21 01:13:42;;;;;;;15.10;10.35;;;22.80;49.00;;;;;;5032106;28;45362;-59
2020/12/21 01:16:08;;;;;;;14.00;10.55;;;22.80;49.00;;;;;;5050050;28;45405;-58
2020/12/21 01:18:34;;;;;;;15.68;10.55;;;22.80;49.00;;;;;;5031209;28;45353;-58
2020/12/21 01:20:59;;;;;;;13.13;9.60;;;22.80;49.00;;;;;;5032855;28;45379;-59
2020/12/21 01:23:25;;;;;;;15.57;9.35;;;22.70;48.90;;;;;;5044533;28;45461;-58
2020/12/21 01:25:51;;;;;;;13.30;10.27;;;22.70;48.90;;;;;;5029020;28;45306;-58
2020/12/21 01:28:17;;;;;;;14.88;9.20;;;22.70;48.90;;;;;;5049144;28;45368;-58
2020/12/21 01:30:42;;;;;;;15.25;10.27;;;22.70;49.00;;;;;;5042131;28;45161;-59
2020/12/21 01:33:09;;;;;;;14.98;9.80;;;22.70;49.00;;;;;;5028135;28;45371;-58
2020/12/21 01:35:35;;;;;;;12.32;9.43;;;22.70;49.00;;;;;;5040074;28;45256;-59
2020/12/21 01:38:00;;;;;;;15.07;10.25;;;22.70;49.00;;;;;;5048813;28;45355;-58
2020/12/21 01:40:26;;;;;;;13.25;9.45;;;22.70;49.60;;;;;;5030099;28;45446;-58
2020/12/21 01:42:52;;;;;;;15.07;10.57;;;22.60;49.00;;;;;;5027929;28;47065;-59
2020/12/21 01:45:18;;;;;;;12.70;9.60;;;22.60;49.00;;;;;;5011989;28;45340;-58
2020/12/21 01:47:43;;;;;;;13.15;9.50;;;22.60;49.00;;;;;;5021455;28;45474;-58
2020/12/21 01:50:09;;;;;;;16.23;11.02;;;22.60;49.10;;;;;;5036343;28;45419;-58
2020/12/21 01:52:35;;;;;;;15.18;11.10;;;22.60;49.10;;;;;;5027834;28;46002;-59
2020/12/21 01:55:01;;;;;;;12.57;9.30;;;22.60;49.10;;;;;;5011734;28;45585;-58
2020/12/21 01:57:26;;;;;;;12.73;9.55;;;22.60;49.10;;;;;;5031136;28;45359;-59
2020/12/21 01:59:52;;;;;;;13.13;9.63;;;22.60;49.10;;;;;;5048269;28;45173;-58
2020/12/21 02:02:18;;;;;;;12.25;9.18;;;22.50;49.10;;;;;;5048146;28;46186;-58
2020/12/21 02:04:43;;;;;;;13.73;10.57;;;22.50;49.10;;;;;;5047122;28;45440;-58
2020/12/21 02:07:09;;;;;;;12.95;9.35;;;22.50;49.20;;;;;;5048333;28;45220;-59
2020/12/21 02:09:34;;;;;;;14.52;10.00;;;22.50;49.20;;;;;;5048870;28;45542;-58
2020/12/21 02:12:00;;;;;;;12.43;9.63;;;22.50;49.20;;;;;;5048066;28;46185;-58
2020/12/21 02:14:26;;;;;;;11.73;9.90;;;22.50;49.20;;;;;;5047841;28;45358;-58
2020/12/21 02:16:51;;;;;;;11.10;8.50;;;22.50;49.20;;;;;;5048116;28;45414;-58
2020/12/21 02:19:18;;;;;;;13.57;10.15;;;22.50;49.20;;;;;;5044428;28;45603;-58
2020/12/21 02:21:47;;;;;;;14.02;10.35;;;22.40;49.20;;;;;;5028418;28;47394;-58
2020/12/21 02:24:13;;;;;;;12.20;10.18;;;22.40;49.20;;;;;;5048333;28;45232;-58
2020/12/21 02:26:39;;;;;;;11.07;9.25;;;22.40;49.20;;;;;;5047558;28;45177;-58
2020/12/21 02:29:04;;;;;;;12.45;9.63;;;22.40;49.30;;;;;;5048383;28;45685;-58
2020/12/21 02:31:30;;;;;;;12.98;9.48;;;22.40;49.30;;;;;;5040606;28;45244;-58
2020/12/21 02:33:56;;;;;;;12.23;10.13;;;22.40;49.40;;;;;;5029168;28;45329;-58
2020/12/21 02:36:21;;;;;;;12.65;10.30;;;22.40;49.30;;;;;;5045074;28;45487;-59
2020/12/21 02:38:47;;;;;;;11.18;8.88;;;22.40;49.30;;;;;;5029760;28;45459;-60
2020/12/21 02:41:14;;;;;;;13.60;9.57;;;22.40;49.30;;;;;;5047497;28;46352;-59
2020/12/21 02:43:39;;;;;;;11.35;8.85;;;22.40;49.30;;;;;;5047296;28;45439;-57
2020/12/21 02:46:09;;;;;;;13.38;9.70;;;22.30;49.20;;;;;;5047750;28;45392;-59
2020/12/21 02:48:35;;;;;;;12.18;8.93;;;22.40;49.30;;;;;;5044318;28;45603;-58
2020/12/21 02:51:01;;;;;;;13.10;9.27;;;22.40;49.30;;;;;;5030788;28;45297;-59
2020/12/21 02:53:26;;;;;;;12.18;9.60;;;22.30;49.30;;;;;;5038402;28;45397;-59
2020/12/21 02:55:52;;;;;;;12.13;9.07;;;22.30;49.40;;;;;;5013303;28;45500;-58
2020/12/21 02:58:18;;;;;;;12.77;9.93;;;22.30;49.40;;;;;;5027785;28;45690;-59
2020/12/21 03:00:43;;;;;;;12.32;9.95;;;22.30;49.40;;;;;;5033579;28;46105;-58
2020/12/21 03:03:09;;;;;;;12.82;9.43;;;22.30;49.40;;;;;;5044275;28;45431;-59
2020/12/21 03:05:35;;;;;;;13.75;9.65;;;22.30;49.40;;;;;;5047100;28;45366;-58
2020/12/21 03:08:04;;;;;;;12.30;8.60;;;22.30;49.20;;;;;;5026660;28;45577;-61
2020/12/21 03:10:30;;;;;;;12.85;9.90;;;22.40;49.20;;;;;;5043252;28;45328;-58
2020/12/21 03:12:55;;;;;;;13.20;9.68;;;22.40;49.10;;;;;;5023117;28;45264;-60
2020/12/21 03:15:21;;;;;;;14.20;9.57;;;22.40;49.00;;;;;;5014262;28;45491;-58
2020/12/21 03:17:46;;;;;;;13.52;10.48;;;22.40;49.00;;;;;;5029058;28;45341;-59
2020/12/21 03:20:12;;;;;;;11.85;9.60;;;22.50;48.90;;;;;;5030321;28;45329;-60
2020/12/21 03:22:38;;;;;;;13.80;10.00;;;22.50;48.70;;;;;;5029532;28;45477;-59
2020/12/21 03:25:04;;;;;;;13.77;10.05;;;22.50;48.70;;;;;;5030523;28;45487;-59
2020/12/21 03:27:30;;;;;;;11.70;9.50;;;22.50;48.70;;;;;;5026016;28;45413;-58
2020/12/21 03:29:56;;;;;;;12.88;9.35;;;22.60;48.60;;;;;;5009487;28;46208;-60
2020/12/21 03:32:21;;;;;;;11.77;9.07;;;22.60;48.40;;;;;;5046646;28;45439;-59
2020/12/21 03:34:47;;;;;;;11.65;9.02;;;22.70;48.50;;;;;;5040135;28;45309;-58
2020/12/21 03:37:13;;;;;;;12.38;9.23;;;22.80;48.70;;;;;;5027463;28;45578;-59
2020/12/21 03:39:38;;;;;;;12.23;9.45;;;22.80;48.60;;;;;;5026530;28;46059;-59
2020/12/21 03:42:04;;;;;;;11.90;8.80;;;22.80;48.50;;;;;;5026674;28;45198;-59
2020/12/21 03:44:30;;;;;;;10.20;8.20;;;22.90;48.40;;;;;;5043876;28;45226;-59
2020/12/21 03:46:55;;;;;;;11.88;9.40;;;22.90;48.30;;;;;;5046851;28;45554;-59
2020/12/21 03:49:21;;;;;;;10.43;8.57;;;22.90;48.30;;;;;;5052938;28;45904;-59
2020/12/21 03:51:47;;;;;;;12.18;8.63;;;22.90;48.20;;;;;;5026471;28;45393;-59
2020/12/21 03:54:13;;;;;;;12.05;9.00;;;23.00;48.10;;;;;;5026559;28;45289;-59
2020/12/21 03:56:40;;;;;;;10.80;8.88;;;23.00;48.10;;;;;;5037726;28;45484;-59
2020/12/21 03:59:06;;;;;;;11.48;9.00;;;23.10;48.20;;;;;;5042792;28;47172;-59
2020/12/21 04:01:31;;;;;;;11.32;8.27;;;23.10;48.20;;;;;;5046504;28;45339;-59
2020/12/21 04:03:57;;;;;;;11.77;8.70;;;23.10;48.10;;;;;;5040144;28;45342;-60
2020/12/21 04:06:23;;;;;;;11.57;8.70;;;23.10;48.10;;;;;;5026761;28;45400;-59
2020/12/21 04:08:48;;;;;;;11.38;8.32;;;23.10;48.00;;;;;;5026359;28;46279;-59
2020/12/21 04:11:14;;;;;;;13.18;9.27;;;23.20;48.00;;;;;;5027133;28;45361;-60
2020/12/21 04:13:39;;;;;;;11.27;8.40;;;23.20;48.00;;;;;;5046827;28;45267;-58
2020/12/21 04:16:05;;;;;;;10.18;7.78;;;23.20;48.00;;;;;;5048833;28;45629;-59
2020/12/21 04:18:31;;;;;;;9.85;7.75;;;23.20;47.90;;;;;;5015475;28;46411;-59
2020/12/21 04:20:56;;;;;;;10.98;7.90;;;23.20;47.90;;;;;;5033029;28;45383;-60
2020/12/21 04:23:22;;;;;;;11.60;8.45;;;23.20;47.80;;;;;;5029399;28;45680;-59
2020/12/21 04:25:49;;;;;;;12.57;8.88;;;23.30;47.80;;;;;;5013827;28;45474;-59
2020/12/21 04:28:15;;;;;;;11.82;7.57;;;23.30;47.80;;;;;;5049672;28;46153;-59
2020/12/21 04:30:40;;;;;;;13.07;8.00;;;23.30;47.90;;;;;;5049376;28;45458;-59
2020/12/21 04:33:06;;;;;;;15.23;9.02;;;23.30;47.80;;;;;;5049612;28;45378;-59
2020/12/21 04:35:32;;;;;;;15.40;10.35;;;23.40;47.60;;;;;;5049390;28;45363;-59
2020/12/21 04:37:57;;;;;;;16.48;12.30;;;23.40;47.30;;;;;;5049322;28;45503;-59
2020/12/21 04:40:23;;;;;;;17.42;12.80;;;23.40;46.60;;;;;;5049228;28;45292;-59
2020/12/21 04:42:53;;;;;;;19.55;13.77;;;23.30;46.30;;;;;;5045954;28;45329;-59
2020/12/21 04:45:19;;;;;;;20.35;13.82;;;23.30;45.90;;;;;;5030971;28;45320;-59
2020/12/21 04:47:45;;;;;;;22.23;13.70;;;23.30;45.80;;;;;;5040009;28;45356;-59
2020/12/21 04:50:16;;;;;;;17.55;10.70;;;23.30;45.60;;;;;;5036724;28;45309;-59
2020/12/21 04:52:50;;;;;;;15.85;11.60;;;23.30;45.90;;;;;;5048519;28;45533;-59
2020/12/21 04:55:22;;;;;;;17.75;13.48;;;23.40;45.80;;;;;;5029796;28;45241;-59
2020/12/21 04:58:17;;;;;;;18.58;13.30;;;23.40;45.30;;;;;;5027293;28;45403;-59
2020/12/21 05:00:43;;;;;;;18.83;14.10;;;23.40;44.60;;;;;;5017774;28;45576;-59
2020/12/21 05:03:09;;;;;;;19.63;14.63;;;23.40;44.90;;;;;;5045666;28;45284;-59
2020/12/21 05:05:41;;;;;;;21.13;15.25;;;23.40;44.70;;;;;;5043558;28;45379;-59
2020/12/21 05:08:19;;;;;;;22.85;15.30;;;23.40;44.50;;;;;;5041046;28;47122;-59
2020/12/21 05:10:46;;;;;;;16.75;11.77;;;23.30;44.40;;;;;;5036823;28;45402;-59
2020/12/21 05:13:12;;;;;;;19.80;13.05;;;23.40;44.90;;;;;;5028191;28;45587;-59
2020/12/21 05:15:38;;;;;;;19.95;13.93;;;23.40;44.80;;;;;;5013131;28;45337;-59
2020/12/21 05:18:08;;;;;;;18.20;13.68;;;23.40;44.30;;;;;;5027513;28;47077;-59
2020/12/21 05:20:34;;;;;;;16.85;12.35;;;23.40;44.00;;;;;;5058237;28;45438;-59
2020/12/21 05:23:01;;;;;;;16.98;12.50;;;23.40;44.40;;;;;;5020916;28;45317;-59
2020/12/21 05:25:27;;;;;;;16.38;11.88;;;23.40;44.60;;;;;;5032113;28;45330;-60
2020/12/21 05:27:53;;;;;;;16.83;12.80;;;23.40;44.70;;;;;;5049072;28;45894;-59
2020/12/21 05:30:18;;;;;;;14.70;10.80;;;23.50;44.80;;;;;;5039541;28;45447;-59
2020/12/21 05:32:44;;;;;;;16.63;11.90;;;23.50;44.80;;;;;;5028832;28;45586;-59
2020/12/21 05:35:10;;;;;;;15.05;11.10;;;23.50;44.80;;;;;;5041061;28;45533;-59
2020/12/21 05:37:37;;;;;;;14.25;10.73;;;23.50;44.90;;;;;;5048551;28;47148;-60
2020/12/21 05:40:03;;;;;;;13.98;10.40;;;23.60;45.00;;;;;;5048763;28;45328;-59
2020/12/21 05:42:29;;;;;;;14.13;10.35;;;23.60;45.10;;;;;;5048772;28;45379;-60
2020/12/21 05:44:59;;;;;;;13.57;10.15;;;23.60;45.10;;;;;;5048335;28;45228;-60
2020/12/21 05:47:25;;;;;;;13.95;10.40;;;23.70;45.20;;;;;;5045370;28;45990;-60
2020/12/21 05:50:05;;;;;;;12.80;10.13;;;23.70;45.20;;;;;;5031256;28;45325;-60
2020/12/21 05:52:34;;;;;;;14.73;10.48;;;23.70;45.20;;;;;;5037852;28;45359;-59
2020/12/21 05:55:07;;;;;;;12.60;9.30;;;23.70;45.30;;;;;;5040921;28;45405;-60
2020/12/21 05:57:33;;;;;;;13.23;9.23;;;23.80;45.30;;;;;;5033936;28;46578;-60
2020/12/21 05:59:59;;;;;;;13.13;9.35;;;23.80;45.30;;;;;;5011836;28;45313;-60
2020/12/21 06:02:26;;;;;;;11.05;9.00;;;23.80;45.30;;;;;;5027423;28;45399;-60
2020/12/21 06:05:00;;;;;;;14.10;10.68;;;23.90;45.40;;;;;;5032077;28;45371;-60
2020/12/21 06:07:25;;;;;;;16.85;11.52;;;23.90;45.20;;;;;;5048315;28;46608;-60
2020/12/21 06:09:51;;;;;;;13.60;10.35;;;23.90;45.20;;;;;;5031376;28;45312;-60
2020/12/21 06:12:21;;;;;;;14.07;9.82;;;23.90;45.20;;;;;;5031584;28;45295;-60
2020/12/21 06:14:49;;;;;;;15.40;10.48;;;23.90;45.20;;;;;;5048276;28;45337;-60
2020/12/21 06:17:14;;;;;;;12.80;9.02;;;23.90;45.20;;;;;;5031247;28;46428;-60
2020/12/21 06:19:40;;;;;;;15.82;10.73;;;23.90;45.20;;;;;;5030412;28;45545;-60
2020/12/21 06:22:05;;;;;;;13.50;9.75;;;24.00;45.20;;;;;;5030848;28;45348;-60
2020/12/21 06:24:36;;;;;;;12.73;9.52;;;24.00;45.20;;;;;;5048724;28;45408;-60
2020/12/21 06:27:11;;;;;;;12.10;9.18;;;24.00;45.20;;;;;;5047877;28;45576;-61
2020/12/21 06:29:37;;;;;;;14.00;10.02;;;24.10;45.20;;;;;;5047892;28;45291;-59
2020/12/21 06:32:04;;;;;;;13.85;9.70;;;24.10;45.30;;;;;;5048170;28;45366;-62
2020/12/21 06:34:30;;;;;;;12.98;10.10;;;24.10;45.20;;;;;;5047755;28;45399;-61
2020/12/21 06:37:19;;;;;;;11.43;9.20;;;24.10;45.20;;;;;;5048723;28;47149;-62
2020/12/21 06:39:45;;;;;;;12.82;8.63;;;24.20;45.20;;;;;;5044305;28;46036;-62
2020/12/21 06:42:20;;;;;;;13.20;10.05;;;24.20;45.30;;;;;;5020640;28;45403;-62
2020/12/21 06:44:46;;;;;;;16.80;10.05;;;24.20;45.40;;;;;;5032669;28;45511;-62
2020/12/21 06:47:12;;;;;;;19.38;11.80;;;24.20;45.50;;;;;;5030794;28;46261;-62
2020/12/21 06:49:38;;;;;;;15.63;12.05;;;24.20;45.30;;;;;;5030401;28;45387;-62
2020/12/21 06:52:03;;;;;;;18.65;12.50;;;24.20;45.00;;;;;;5030972;28;45339;-62
2020/12/21 06:54:29;;;;;;;18.30;12.02;;;24.10;44.70;;;;;;5031197;28;45556;-62
2020/12/21 06:56:55;;;;;;;17.20;11.77;;;24.10;44.50;;;;;;5031127;28;46276;-62
2020/12/21 06:59:22;;;;;;;18.92;12.85;;;24.10;44.70;;;;;;5026516;28;45482;-62
2020/12/21 07:01:49;;;;;;;22.00;12.52;;;24.00;44.90;;;;;;5017946;28;45661;-62
2020/12/21 07:04:32;;;;;;;21.75;13.90;;;24.00;45.00;;;;;;5035435;28;45547;-62
2020/12/21 07:07:00;;;;;;;28.30;12.40;;;24.00;44.80;;;;;;5038489;28;46187;-62
2020/12/21 07:09:34;;;;;;;18.05;12.80;;;23.90;45.00;;;;;;5041256;28;45413;-64
2020/12/21 07:12:04;;;;;;;16.73;11.35;;;24.00;45.40;;;;;;5040313;28;45849;-68
2020/12/21 07:14:31;;;;;;;21.40;15.60;;;23.90;45.50;;;;;;5022717;28;45402;-65
2020/12/21 07:17:09;;;;;;;19.10;14.63;;;23.80;44.30;;;;;;5036537;28;46269;-65
2020/12/21 07:19:38;;;;;;;20.08;13.05;;;23.90;44.40;;;;;;5036293;28;45624;-67
2020/12/21 07:22:07;;;;;;;20.17;12.70;;;24.00;44.70;;;;;;5034939;28;45500;-63
2020/12/21 07:24:33;;;;;;;16.75;10.68;;;24.10;44.90;;;;;;5036909;28;45822;-60
2020/12/21 07:26:58;;;;;;;17.15;11.48;;;24.10;44.90;;;;;;5022607;28;45597;-63
2020/12/21 07:29:30;;;;;;;16.33;11.10;;;24.20;45.10;;;;;;5037166;28;45478;-65
2020/12/21 07:31:56;;;;;;;15.30;10.52;;;24.20;45.00;;;;;;5044718;28;45470;-61
2020/12/21 07:34:22;;;;;;;13.27;9.88;;;24.30;45.20;;;;;;5019518;28;45503;-65
2020/12/21 07:36:47;;;;;;;13.65;10.60;;;24.40;45.30;;;;;;5021958;28;46044;-61
2020/12/21 07:39:19;;;;;;;17.13;11.05;;;24.40;45.30;;;;;;5018367;28;45572;-62
2020/12/21 07:41:54;;;;;;;14.50;10.43;;;24.50;45.40;;;;;;5036466;28;45475;-62
2020/12/21 07:44:27;;;;;;;14.93;10.25;;;24.50;45.50;;;;;;5034773;28;45423;-61
2020/12/21 07:47:01;;;;;;;12.80;9.27;;;24.50;45.50;;;;;;5038087;28;47086;-66
2020/12/21 07:49:27;;;;;;;14.25;9.75;;;24.50;45.50;;;;;;5040527;28;45436;-66
2020/12/21 07:51:58;;;;;;;15.45;10.55;;;24.50;45.50;;;;;;5017956;28;45376;-64
2020/12/21 07:54:23;;;;;;;15.35;8.88;;;24.60;45.60;;;;;;5037386;28;45569;-66
2020/12/21 07:57:01;;;;;;;16.13;10.32;;;24.60;45.60;;;;;;5017240;28;46415;-66
2020/12/21 07:59:27;;;;;;;14.30;9.40;;;24.60;45.70;;;;;;5037511;28;46101;-63
2020/12/21 08:01:56;;;;;;;15.00;9.25;;;24.60;45.70;;;;;;5020334;28;45376;-63
2020/12/21 08:04:22;;;;;;;11.60;9.07;;;24.60;45.60;;;;;;5037071;28;45592;-64
2020/12/21 08:06:48;;;;;;;16.88;9.02;;;24.60;45.70;;;;;;5037965;28;46969;-67
2020/12/21 08:09:14;;;;;;;12.93;8.75;;;24.70;45.70;;;;;;5019199;28;45318;-67
2020/12/21 08:11:39;;;;;;;11.93;9.48;;;24.60;45.70;;;;;;5016672;28;45388;-66
2020/12/21 08:14:07;;;;;;;15.82;9.65;;;24.60;45.80;;;;;;5022049;28;45543;-65
2020/12/21 08:16:33;;;;;;;17.70;8.95;;;24.70;45.90;;;;;;5039972;28;46154;-68
2020/12/21 08:18:59;;;;;;;13.15;8.60;;;24.70;45.80;;;;;;5046229;28;45468;-65
2020/12/21 08:21:25;;;;;;;14.95;9.63;;;24.80;45.80;;;;;;5045169;28;45387;-63
2020/12/21 08:23:55;;;;;;;16.63;7.47;;;24.90;46.00;;;;;;5042174;28;45453;-66
2020/12/21 08:26:22;;;;;;;16.73;8.90;;;25.00;45.80;;;;;;5017486;28;46313;-62
2020/12/21 08:28:50;;;;;;;12.18;8.40;;;25.00;45.70;;;;;;5029067;28;45446;-65
2020/12/21 08:31:20;;;;;;;13.15;7.95;;;25.10;45.60;;;;;;5029787;28;45293;-63
2020/12/21 08:33:59;;;;;;;14.80;8.52;;;25.10;45.50;;;;;;5026635;28;45565;-70
2020/12/21 08:36:37;;;;;;;19.98;8.45;;;25.10;45.60;;;;;;5038067;28;45402;-64
2020/12/21 08:39:13;;;;;;;12.40;8.30;;;25.10;45.60;;;;;;5035798;28;45367;-66
2020/12/21 08:41:44;;;;;;;13.02;8.43;;;25.10;45.70;;;;;;5035172;28;45634;-71
2020/12/21 08:44:14;;;;;;;13.20;8.82;;;25.10;45.70;;;;;;5033877;28;45316;-63
2020/12/21 08:46:43;;;;;;;11.45;7.85;;;25.10;45.80;;;;;;5035858;28;45345;-66
2020/12/21 08:49:09;;;;;;;13.05;8.15;;;25.10;45.70;;;;;;5036273;28;45450;-65
2020/12/21 08:51:34;;;;;;;12.95;9.20;;;25.00;45.60;;;;;;5019070;28;45365;-70
2020/12/21 08:54:00;;;;;;;13.90;8.48;;;25.00;45.60;;;;;;5019670;28;45307;-67
2020/12/21 08:56:26;;;;;;;16.20;9.27;;;25.10;45.70;;;;;;5020776;28;46031;-70
2020/12/21 08:58:52;;;;;;;14.20;9.23;;;25.10;45.60;;;;;;5020842;28;45755;-71
2020/12/21 09:01:17;;;;;;;15.52;9.63;;;25.10;45.50;;;;;;5024141;28;45802;-66
2020/12/21 09:03:44;;;;;;;13.85;9.77;;;25.10;45.30;;;;;;5021407;28;45881;-66
2020/12/21 09:06:18;;;;;;;12.80;9.32;;;25.10;45.10;;;;;;5051496;28;47276;-64
2020/12/21 09:08:43;;;;;;;17.05;9.55;;;25.10;45.00;;;;;;5048744;28;45572;-63
2020/12/21 09:11:09;;;;;;;14.30;9.82;;;25.00;44.90;;;;;;5038960;28;45382;-66
2020/12/21 09:13:35;;;;;;;15.27;10.07;;;25.00;45.00;;;;;;5062279;28;45360;-65
2020/12/21 09:16:01;;;;;;;11.95;8.82;;;25.00;45.00;;;;;;5051588;28;46250;-65
2020/12/21 09:18:27;;;;;;;12.50;8.45;;;25.00;45.00;;;;;;5045602;28;45835;-71
2020/12/21 09:20:52;;;;;;;14.20;9.65;;;25.00;45.20;;;;;;5020403;28;45563;-68
2020/12/21 09:23:18;;;;;;;11.63;8.25;;;25.00;45.40;;;;;;5017072;28;45525;-64
2020/12/21 09:25:44;;;;;;;15.63;9.15;;;24.90;45.40;;;;;;5033709;28;45498;-68
2020/12/21 09:28:09;;;;;;;12.55;7.68;;;24.90;45.50;;;;;;5028992;28;45669;-67
2020/12/21 09:30:35;;;;;;;12.70;8.05;;;24.90;45.50;;;;;;5037455;28;45457;-70
2020/12/21 09:33:01;;;;;;;15.38;8.30;;;24.80;45.50;;;;;;5038972;28;45384;-69
2020/12/21 09:35:26;;;;;;;11.85;8.23;;;24.80;45.50;;;;;;5034358;28;46008;-64
2020/12/21 09:37:52;;;;;;;14.07;9.38;;;24.80;45.50;;;;;;5020364;28;45328;-64
2020/12/21 09:40:18;;;;;;;15.35;8.80;;;24.90;45.50;;;;;;5020420;28;45257;-64
2020/12/21 09:42:43;;;;;;;12.85;8.73;;;24.80;45.40;;;;;;5023361;28;45654;-64
2020/12/21 09:45:09;;;;;;;12.25;7.97;;;24.90;45.50;;;;;;5023310;28;46522;-63
2020/12/21 09:47:35;;;;;;;12.10;8.18;;;24.90;45.60;;;;;;5042720;28;45260;-62
2020/12/21 09:50:00;;;;;;;14.75;9.00;;;24.90;45.60;;;;;;5022339;28;45435;-62
2020/12/21 09:52:26;;;;;;;12.30;8.07;;;24.80;45.70;;;;;;5030576;28;45380;-61
2020/12/21 09:54:51;;;;;;;10.32;7.18;;;24.80;45.80;;;;;;5030749;28;45289;-61
2020/12/21 09:57:18;;;;;;;12.25;8.60;;;24.80;45.80;;;;;;5025575;28;45443;-61
2020/12/21 09:59:44;;;;;;;15.48;7.68;;;24.70;45.90;;;;;;5028645;28;45731;-62
2020/12/21 10:02:10;;;;;;;11.35;8.43;;;24.70;46.00;;;;;;5031708;28;45694;-61
2020/12/21 10:04:36;;;;;;;11.82;7.32;;;24.60;46.10;;;;;;5030826;28;46084;-61
2020/12/21 10:07:01;;;;;;;10.80;7.43;;;24.60;46.20;;;;;;5030653;28;45396;-61
2020/12/21 10:09:27;;;;;;;12.15;7.90;;;24.50;46.30;;;;;;5029114;28;45331;-61
2020/12/21 10:11:53;;;;;;;11.70;8.18;;;24.50;46.40;;;;;;5035191;28;45504;-61
2020/12/21 10:14:18;;;;;;;14.63;8.77;;;24.40;46.40;;;;;;5028850;28;47026;-61
2020/12/21 10:16:44;;;;;;;12.93;7.80;;;24.50;46.50;;;;;;5028579;28;45344;-62
2020/12/21 10:19:10;;;;;;;11.55;7.47;;;24.50;46.50;;;;;;5027739;28;45434;-61
2020/12/21 10:21:35;;;;;;;9.48;7.15;;;24.50;46.50;;;;;;5029907;28;45633;-61
2020/12/21 10:24:01;;;;;;;10.45;7.28;;;24.50;46.50;;;;;;5045530;28;45731;-61
2020/12/21 10:26:26;;;;;;;11.23;7.50;;;24.40;46.60;;;;;;5029230;28;45464;-61
2020/12/21 10:28:52;;;;;;;14.02;7.88;;;24.40;46.60;;;;;;5026458;28;45747;-61
2020/12/21 10:31:18;;;;;;;11.30;7.85;;;24.40;46.70;;;;;;5040292;28;45476;-63
2020/12/21 10:33:43;;;;;;;10.90;7.00;;;24.40;46.90;;;;;;5021507;28;46145;-57
2020/12/21 10:36:14;;;;;;;10.85;8.13;;;24.40;46.80;;;;;;5029611;28;45582;-61
2020/12/21 10:38:40;;;;;;;10.18;6.93;;;24.40;46.80;;;;;;5044905;28;45288;-58
2020/12/21 10:41:06;;;;;;;11.70;7.93;;;24.40;46.90;;;;;;5030892;28;45205;-59
2020/12/21 10:43:31;;;;;;;12.30;7.78;;;24.40;46.90;;;;;;5025604;28;45431;-58
2020/12/21 10:45:57;;;;;;;9.77;6.93;;;24.30;47.00;;;;;;5039020;28;45469;-59
2020/12/21 10:48:23;;;;;;;12.85;7.32;;;24.30;46.90;;;;;;5036875;28;45660;-59
2020/12/21 10:50:48;;;;;;;12.02;7.70;;;24.30;46.90;;;;;;5028728;28;45618;-59
2020/12/21 10:53:14;;;;;;;12.98;7.43;;;24.30;47.00;;;;;;5029929;28;45364;-59
2020/12/21 10:55:40;;;;;;;12.95;8.23;;;24.30;47.30;;;;;;5029245;28;45414;-59
2020/12/21 10:58:05;;;;;;;14.15;8.13;;;24.30;47.30;;;;;;5025851;28;45434;-60
2020/12/21 11:00:31;;;;;;;14.18;7.95;;;24.30;47.40;;;;;;5046640;28;45543;-59
2020/12/21 11:02:57;;;;;;;13.10;8.55;;;24.20;47.40;;;;;;5029605;28;46322;-59
2020/12/21 11:05:22;;;;;;;14.98;8.20;;;24.30;47.50;;;;;;5030551;28;45293;-59
2020/12/21 11:07:48;;;;;;;15.80;8.57;;;24.20;47.80;;;;;;5030534;28;45302;-59
2020/12/21 11:10:13;;;;;;;12.68;8.75;;;24.20;47.80;;;;;;5047043;28;45248;-59
2020/12/21 11:12:39;;;;;;;13.65;7.70;;;24.20;47.90;;;;;;5020143;28;46306;-59
2020/12/21 11:15:08;;;;;;;13.80;8.40;;;24.20;47.70;;;;;;5024474;28;45416;-59
2020/12/21 11:17:33;;;;;;;20.02;9.15;;;24.20;47.70;;;;;;5041700;28;45538;-59
2020/12/21 11:19:59;;;;;;;11.95;7.75;;;24.20;47.80;;;;;;5040588;28;45477;-60
2020/12/21 11:22:25;;;;;;;13.63;8.52;;;24.20;47.80;;;;;;5019467;28;46133;-59
2020/12/21 11:24:51;;;;;;;15.85;8.40;;;24.20;48.10;;;;;;5023102;28;45292;-58
2020/12/21 11:27:17;;;;;;;16.65;8.10;;;24.20;48.20;;;;;;5020153;28;45350;-60
2020/12/21 11:29:43;;;;;;;14.23;7.65;;;24.30;48.20;;;;;;5038175;28;45349;-61
2020/12/21 11:32:08;;;;;;;12.85;7.82;;;24.30;48.30;;;;;;5019184;28;46166;-60
2020/12/21 11:34:34;;;;;;;13.85;7.75;;;24.20;48.40;;;;;;5022213;28;47483;-61
2020/12/21 11:37:00;;;;;;;11.65;7.57;;;24.20;48.20;;;;;;5023647;28;45412;-62
2020/12/21 11:39:25;;;;;;;12.45;8.20;;;24.30;48.10;;;;;;5020907;28;45425;-59
2020/12/21 11:41:51;;;;;;;13.63;7.97;;;24.30;48.00;;;;;;5036998;28;47000;-61
2020/12/21 11:44:16;;;;;;;11.27;7.30;;;24.30;48.00;;;;;;5039836;28;45586;-60
2020/12/21 11:46:42;;;;;;;11.57;7.70;;;24.40;48.10;;;;;;5023152;28;45602;-59
2020/12/21 11:49:08;;;;;;;14.45;8.60;;;24.40;48.00;;;;;;5017846;28;45424;-62
2020/12/21 11:51:33;;;;;;;12.93;8.15;;;24.40;47.90;;;;;;5044927;28;46049;-62
2020/12/21 11:53:59;;;;;;;14.02;7.75;;;24.40;47.90;;;;;;5019037;28;45487;-64
2020/12/21 11:56:25;;;;;;;14.18;8.15;;;24.40;47.90;;;;;;5035846;28;45452;-63
2020/12/21 11:58:50;;;;;;;14.90;7.43;;;24.40;47.90;;;;;;5028242;28;45757;-64
2020/12/21 12:01:19;;;;;;;11.50;7.50;;;24.40;47.90;;;;;;5020714;28;45969;-64
2020/12/21 12:03:45;;;;;;;13.05;7.78;;;24.40;47.90;;;;;;5019819;28;45497;-65
2020/12/21 12:06:11;;;;;;;13.90;7.97;;;24.40;47.90;;;;;;5023010;28;45444;-65
2020/12/21 12:08:36;;;;;;;12.40;7.72;;;24.40;47.90;;;;;;5026128;28;45570;-65
2020/12/21 12:11:02;;;;;;;11.25;7.47;;;24.30;47.90;;;;;;5021512;28;46211;-66
2020/12/21 12:13:28;;;;;;;9.88;7.18;;;24.30;47.90;;;;;;5020275;28;45400;-66
2020/12/21 12:15:53;;;;;;;15.70;7.60;;;24.30;47.90;;;;;;5026259;28;45992;-66
2020/12/21 12:18:19;;;;;;;13.02;7.70;;;24.30;47.90;;;;;;5036393;28;45713;-65
2020/12/21 12:20:45;;;;;;;16.73;7.88;;;24.30;47.90;;;;;;5017604;28;45499;-64
2020/12/21 12:23:10;;;;;;;11.45;7.07;;;24.30;48.00;;;;;;5033623;28;45398;-63
2020/12/21 12:25:36;;;;;;;16.33;8.45;;;24.20;48.00;;;;;;5022459;28;45402;-63
2020/12/21 12:28:01;;;;;;;10.73;7.32;;;24.20;48.00;;;;;;5017660;28;45697;-63
2020/12/21 12:30:27;;;;;;;11.52;6.93;;;24.20;48.00;;;;;;5020819;28;46316;-66